KMGC/MGC METAR and TAF weather

Enter ICAO airport designator
Station Type Date Time Source
KMGC METAR 2019/12/13 16:55 UTC NOAA

KMGC 131655Z AUTO 17006KT 10SM CLR 03/01 A2995 RMK AO2


Station Type Date Time Source
KMGC Decoded METAR 2019/12/13 16:55 UTC NOAA

Station name not available
Dec 13, 2019 - 11:55 AM EST / 2019.12.13 1655 UTC
Wind: from the S (170 degrees) at 7 MPH (6 KT):0
Visibility: 10 mile(s):0
Sky conditions: clear
Temperature: 37 F (3 C)
Dew Point: 33 F (1 C)
Relative Humidity: 86%
Pressure (altimeter): 29.95 in. Hg (1014 hPa)
ob: KMGC 131655Z AUTO 17006KT 10SM CLR 03/01 A2995 RMK AO2
cycle: 17

Station Type Date Time Source
KMGC TAF UTC NOAA

Error!

Example: see airport list